createdAt,value
2023-03-14T00:02:12.994Z,92.46
2023-03-14T00:04:39.367Z,91.58
2023-03-14T00:07:05.694Z,92.21
2023-03-14T00:09:32.034Z,92.17
2023-03-14T00:11:58.773Z,91.94
2023-03-14T00:14:25.187Z,91.73
2023-03-14T00:16:51.606Z,91.77
2023-03-14T00:19:17.935Z,91.66
2023-03-14T00:21:44.353Z,91.19
2023-03-14T00:24:10.704Z,91.23
2023-03-14T00:26:37.166Z,91.26
2023-03-14T00:29:03.819Z,90.58
2023-03-14T00:31:30.327Z,90.38
2023-03-14T00:33:56.677Z,89.83
2023-03-14T00:36:23.514Z,89.34
2023-03-14T00:38:51.554Z,89.00
2023-03-14T00:41:21.381Z,88.54
2023-03-14T00:43:47.719Z,87.45
2023-03-14T00:46:14.216Z,88.45
2023-03-14T00:48:40.803Z,88.79
2023-03-14T00:51:09.311Z,88.26
2023-03-14T00:53:39.870Z,87.41
2023-03-14T00:56:08.895Z,87.22
2023-03-14T00:58:35.541Z,86.97
2023-03-14T01:01:14.939Z,87.94
2023-03-14T01:03:41.357Z,87.96
2023-03-14T01:06:16.424Z,86.53
2023-03-14T01:08:43.384Z,86.86
2023-03-14T01:11:12.952Z,87.38
2023-03-14T01:13:40.079Z,86.55
2023-03-14T01:16:09.655Z,86.74
2023-03-14T01:18:36.692Z,87.89
2023-03-14T01:21:05.470Z,88.55
2023-03-14T01:23:31.809Z,88.41
2023-03-14T01:25:58.176Z,88.92
2023-03-14T01:28:24.559Z,89.19
2023-03-14T01:30:50.921Z,91.21
2023-03-14T01:33:17.325Z,90.81
2023-03-14T01:35:43.726Z,91.83
2023-03-14T01:38:10.101Z,91.98
2023-03-14T01:40:43.343Z,91.96
2023-03-14T01:43:19.098Z,92.41
2023-03-14T01:46:07.214Z,92.62
2023-03-14T01:48:45.502Z,92.91
2023-03-14T01:51:34.914Z,93.12
2023-03-14T01:54:20.714Z,93.22
2023-03-14T01:56:53.723Z,93.35
2023-03-14T01:59:20.443Z,93.36
2023-03-14T02:01:48.867Z,93.32
2023-03-14T02:04:17.067Z,92.86
2023-03-14T02:06:50.822Z,93.47
2023-03-14T02:09:17.685Z,93.29
2023-03-14T02:11:45.463Z,93.62
2023-03-14T02:14:21.380Z,93.30
2023-03-14T02:16:47.983Z,93.27
2023-03-14T02:19:17.691Z,93.08
2023-03-14T02:22:03.013Z,92.98
2023-03-14T02:24:54.137Z,92.90
2023-03-14T02:27:21.593Z,92.69
2023-03-14T02:29:59.645Z,92.50
2023-03-14T02:32:28.036Z,92.68
2023-03-14T02:34:58.365Z,92.29
2023-03-14T02:37:33.911Z,92.17
2023-03-14T02:40:00.254Z,92.61
2023-03-14T02:42:26.607Z,92.62
2023-03-14T02:44:56.539Z,91.68
2023-03-14T02:47:28.568Z,92.09
2023-03-14T02:50:02.702Z,92.46
2023-03-14T02:52:29.328Z,92.46
2023-03-14T02:54:55.909Z,92.43
2023-03-14T02:57:22.293Z,92.85
2023-03-14T02:59:48.724Z,92.50
2023-03-14T03:02:15.109Z,92.63
2023-03-14T03:04:41.495Z,92.64
2023-03-14T03:07:07.859Z,92.23
2023-03-14T03:09:34.205Z,92.89
2023-03-14T03:12:00.558Z,92.52
2023-03-14T03:14:27.082Z,92.44
2023-03-14T03:16:53.472Z,92.61
2023-03-14T03:19:19.876Z,92.74
2023-03-14T03:21:46.235Z,93.21
2023-03-14T03:24:12.657Z,92.15
2023-03-14T03:26:39.262Z,92.92
2023-03-14T03:29:05.697Z,92.62
2023-03-14T03:31:32.059Z,92.85
2023-03-14T03:33:58.578Z,92.56
2023-03-14T03:36:26.735Z,91.78
2023-03-14T03:38:53.141Z,92.06
2023-03-14T03:41:19.475Z,92.35
2023-03-14T03:43:45.838Z,92.46
2023-03-14T03:46:12.241Z,92.19
2023-03-14T03:48:38.757Z,91.55
2023-03-14T03:51:05.617Z,92.18
2023-03-14T03:53:33.813Z,91.25
2023-03-14T03:56:00.619Z,91.42
2023-03-14T03:58:26.946Z,91.92
2023-03-14T04:00:53.304Z,91.87
2023-03-14T04:03:19.652Z,90.96
2023-03-14T04:05:46.115Z,91.22
2023-03-14T04:08:12.449Z,90.61
2023-03-14T04:10:38.798Z,91.00
2023-03-14T04:13:05.125Z,90.93
2023-03-14T04:15:31.480Z,90.45
2023-03-14T04:17:59.677Z,90.34
2023-03-14T04:20:26.052Z,91.05
2023-03-14T04:22:52.385Z,90.59
2023-03-14T04:25:20.934Z,90.63
2023-03-14T04:27:48.547Z,90.07
2023-03-14T04:30:14.957Z,89.76
2023-03-14T04:32:41.382Z,90.02
2023-03-14T04:35:08.159Z,89.70
2023-03-14T04:37:34.490Z,89.38
2023-03-14T04:40:00.859Z,89.56
2023-03-14T04:42:27.207Z,89.75
2023-03-14T04:44:53.586Z,89.61
2023-03-14T04:47:19.936Z,89.26
2023-03-14T04:49:46.284Z,89.01
2023-03-14T04:52:12.652Z,89.43
2023-03-14T04:54:39.013Z,89.03
2023-03-14T04:57:05.411Z,89.04
2023-03-14T04:59:31.742Z,88.63
2023-03-14T05:01:58.148Z,89.14
2023-03-14T05:04:24.540Z,89.17
2023-03-14T05:06:50.896Z,88.96
2023-03-14T05:09:17.254Z,89.62
2023-03-14T05:11:44.671Z,89.89
2023-03-14T05:14:11.030Z,90.52
2023-03-14T05:16:37.400Z,91.17
2023-03-14T05:19:03.903Z,92.03
2023-03-14T05:21:30.286Z,92.12
2023-03-14T05:23:56.672Z,92.64
2023-03-14T05:26:23.950Z,93.05
2023-03-14T05:28:50.278Z,92.77
2023-03-14T05:31:16.683Z,93.43
2023-03-14T05:33:43.024Z,93.92
2023-03-14T05:36:09.975Z,93.60
2023-03-14T05:38:36.351Z,93.87
2023-03-14T05:41:02.747Z,93.77
2023-03-14T05:43:29.143Z,94.45
2023-03-14T05:45:55.578Z,94.60
2023-03-14T05:48:22.785Z,95.22
2023-03-14T05:50:49.476Z,95.48
2023-03-14T05:53:15.810Z,95.64
2023-03-14T05:55:42.140Z,95.04
2023-03-14T05:58:08.475Z,95.21
2023-03-14T06:00:34.805Z,95.46
2023-03-14T06:03:01.236Z,96.08
2023-03-14T06:05:27.656Z,95.88
2023-03-14T06:07:54.034Z,96.26
2023-03-14T06:10:20.419Z,96.85
2023-03-14T06:12:46.779Z,96.73
2023-03-14T06:15:13.117Z,96.85
2023-03-14T06:17:39.973Z,96.62
2023-03-14T06:20:06.739Z,97.23
2023-03-14T06:22:33.144Z,97.17
2023-03-14T06:24:59.491Z,97.54
2023-03-14T06:27:25.825Z,97.23
2023-03-14T06:29:52.704Z,97.24
2023-03-14T06:32:19.307Z,97.59
2023-03-14T06:34:45.757Z,97.30
2023-03-14T06:37:12.293Z,98.07
2023-03-14T06:39:39.564Z,97.88
2023-03-14T06:42:06.379Z,97.82
2023-03-14T06:44:32.795Z,98.09
2023-03-14T06:46:59.282Z,98.10
2023-03-14T06:49:25.754Z,98.11
2023-03-14T06:51:52.147Z,96.85
2023-03-14T06:54:18.557Z,96.10
2023-03-14T06:56:44.882Z,96.07
2023-03-14T06:59:11.249Z,95.55
2023-03-14T07:01:37.653Z,95.59
2023-03-14T07:04:04.412Z,94.93
2023-03-14T07:06:30.829Z,95.15
2023-03-14T07:08:58.234Z,95.11
2023-03-14T07:11:25.388Z,95.02
2023-03-14T07:13:51.795Z,95.23
2023-03-14T07:16:18.379Z,95.37
2023-03-14T07:18:44.812Z,94.87
2023-03-14T07:21:13.161Z,95.12
2023-03-14T07:23:40.050Z,95.03
2023-03-14T07:26:06.868Z,95.39
2023-03-14T07:28:33.206Z,94.99
2023-03-14T07:30:59.886Z,95.17
2023-03-14T07:33:26.290Z,95.15
2023-03-14T07:35:52.709Z,95.24
2023-03-14T07:38:21.619Z,94.54
2023-03-14T07:40:49.175Z,94.12
2023-03-14T07:43:15.529Z,94.19
2023-03-14T07:45:43.255Z,93.99
2023-03-14T07:48:09.804Z,94.70
2023-03-14T07:50:36.160Z,94.36
2023-03-14T07:53:02.512Z,94.18
2023-03-14T07:55:28.852Z,94.50
2023-03-14T07:57:55.197Z,94.13
2023-03-14T08:00:21.914Z,94.66
2023-03-14T08:02:48.440Z,94.63
2023-03-14T08:05:17.035Z,93.97
2023-03-14T08:07:43.475Z,92.79
2023-03-14T08:10:10.551Z,92.38
2023-03-14T08:12:37.056Z,92.16
2023-03-14T08:15:03.602Z,91.65
2023-03-14T08:17:29.945Z,91.64
2023-03-14T08:19:56.337Z,90.71
2023-03-14T08:22:25.758Z,90.65
2023-03-14T08:24:52.103Z,90.70
2023-03-14T08:27:18.557Z,91.02
2023-03-14T08:29:45.947Z,90.80
2023-03-14T08:32:12.314Z,90.72
2023-03-14T08:34:38.742Z,90.94
2023-03-14T08:37:10.887Z,90.74
2023-03-14T08:39:42.772Z,91.07
2023-03-14T08:42:09.198Z,91.09
2023-03-14T08:44:35.579Z,91.42
2023-03-14T08:47:02.037Z,90.90
2023-03-14T08:49:28.541Z,91.01
2023-03-14T08:51:54.950Z,90.56
2023-03-14T08:54:21.281Z,90.18
2023-03-14T08:56:47.664Z,89.50
2023-03-14T08:59:13.994Z,89.37
2023-03-14T09:01:40.411Z,89.68
2023-03-14T09:04:07.790Z,89.77
2023-03-14T09:06:34.166Z,89.21
2023-03-14T09:09:00.550Z,89.52
2023-03-14T09:11:26.903Z,89.38
2023-03-14T09:13:53.393Z,88.25
2023-03-14T09:16:19.913Z,87.38
2023-03-14T09:18:46.504Z,87.60
2023-03-14T09:21:12.862Z,87.43
2023-03-14T09:23:40.832Z,86.99
2023-03-14T09:26:07.488Z,85.55
2023-03-14T09:28:33.950Z,85.68
2023-03-14T09:31:07.374Z,85.98
2023-03-14T09:33:33.723Z,85.19
2023-03-14T09:36:01.000Z,85.69
2023-03-14T09:38:27.798Z,84.57
2023-03-14T09:40:55.649Z,84.56
2023-03-14T09:43:24.163Z,84.74
2023-03-14T09:45:52.595Z,84.62
2023-03-14T09:48:23.142Z,83.66
2023-03-14T09:50:53.309Z,82.97
2023-03-14T09:53:25.881Z,82.80
2023-03-14T09:55:53.264Z,83.17
2023-03-14T09:58:24.718Z,83.05
2023-03-14T10:00:55.151Z,82.52
2023-03-14T10:03:34.193Z,82.05
2023-03-14T10:06:00.776Z,82.21
2023-03-14T10:08:27.411Z,82.15
2023-03-14T10:10:54.725Z,82.65
2023-03-14T10:13:25.401Z,82.35
2023-03-14T10:15:59.407Z,82.67
2023-03-14T10:18:28.734Z,83.01
2023-03-14T10:21:29.532Z,83.75
2023-03-14T10:24:08.749Z,83.34
2023-03-14T10:26:35.953Z,83.77
2023-03-14T10:29:09.911Z,83.76
2023-03-14T10:32:02.558Z,83.59
2023-03-14T10:34:34.684Z,83.23
2023-03-14T10:37:22.219Z,82.82
2023-03-14T10:39:51.880Z,83.35
2023-03-14T10:42:32.667Z,82.58
2023-03-14T10:45:02.830Z,81.71
2023-03-14T10:47:30.390Z,80.86
2023-03-14T10:49:58.256Z,81.06
2023-03-14T10:52:31.239Z,79.14
2023-03-14T10:55:09.728Z,78.86
2023-03-14T10:57:40.407Z,78.13
2023-03-14T11:00:16.183Z,78.24
2023-03-14T11:02:59.443Z,77.95
2023-03-14T11:06:10.607Z,78.78
2023-03-14T11:08:53.160Z,78.40
2023-03-14T11:11:31.154Z,77.73
2023-03-14T11:14:37.344Z,77.70
2023-03-14T11:17:21.920Z,76.01
2023-03-14T11:20:05.682Z,77.28
2023-03-14T11:22:48.437Z,76.16
2023-03-14T11:25:46.881Z,75.62
2023-03-14T11:28:39.550Z,74.42
2023-03-14T11:31:17.030Z,73.77
2023-03-14T11:34:01.997Z,71.41
2023-03-14T11:36:34.888Z,70.13
2023-03-14T11:39:18.279Z,70.56
2023-03-14T11:41:54.739Z,69.55
2023-03-14T11:44:26.840Z,69.25
2023-03-14T11:47:07.534Z,69.07
2023-03-14T11:49:41.178Z,66.75
2023-03-14T11:52:14.215Z,65.22
2023-03-14T11:55:13.976Z,65.40
2023-03-14T11:57:41.364Z,64.46
2023-03-14T12:00:28.735Z,64.46
2023-03-14T12:03:32.590Z,64.61
2023-03-14T12:06:14.574Z,63.13
2023-03-14T12:08:46.886Z,60.27
2023-03-14T12:11:41.094Z,61.42
2023-03-14T12:14:34.120Z,62.40
2023-03-14T12:17:20.993Z,61.49
2023-03-14T12:19:48.720Z,61.53
2023-03-14T12:22:26.050Z,62.00
2023-03-14T12:24:57.894Z,61.15
2023-03-14T12:27:49.122Z,59.91
2023-03-14T12:30:34.726Z,58.80
2023-03-14T12:33:10.443Z,58.56
2023-03-14T12:35:57.994Z,58.95
2023-03-14T12:39:03.699Z,58.32
2023-03-14T12:41:39.545Z,57.66
2023-03-14T12:44:30.509Z,57.45
2023-03-14T12:47:21.587Z,57.07
2023-03-14T12:49:50.635Z,56.29
2023-03-14T12:52:28.782Z,55.35
2023-03-14T12:55:23.811Z,55.87
2023-03-14T12:58:04.537Z,56.12
2023-03-14T13:00:34.947Z,55.65
2023-03-14T13:03:19.386Z,56.04
2023-03-14T13:05:58.794Z,56.27
2023-03-14T13:08:40.624Z,54.93
2023-03-14T13:11:14.023Z,55.64
2023-03-14T13:13:50.000Z,55.36
2023-03-14T13:16:21.819Z,55.45
2023-03-14T13:19:04.587Z,55.68
2023-03-14T13:21:37.945Z,54.89
2023-03-14T13:24:08.588Z,53.57
2023-03-14T13:26:49.257Z,54.63
2023-03-14T13:29:23.518Z,52.48
2023-03-14T13:31:58.581Z,53.44
2023-03-14T13:34:30.683Z,52.80
2023-03-14T13:36:57.308Z,52.46
2023-03-14T13:39:29.295Z,54.30
2023-03-14T13:42:00.931Z,52.71
2023-03-14T13:44:37.402Z,52.52
2023-03-14T13:47:06.602Z,53.01
2023-03-14T13:49:36.434Z,53.12
2023-03-14T13:52:04.358Z,52.05
2023-03-14T13:54:32.307Z,51.54
2023-03-14T13:57:03.562Z,52.29
2023-03-14T13:59:32.781Z,52.42
2023-03-14T14:02:02.042Z,52.60
2023-03-14T14:04:30.307Z,53.28
2023-03-14T14:06:59.586Z,53.62
2023-03-14T14:09:36.770Z,55.43
2023-03-14T14:12:20.933Z,55.44
2023-03-14T14:14:56.951Z,55.79
2023-03-14T14:17:32.044Z,55.79
2023-03-14T14:20:01.037Z,53.97
2023-03-14T14:22:28.376Z,53.39
2023-03-14T14:24:55.286Z,52.59
2023-03-14T14:27:37.235Z,53.44
2023-03-14T14:30:07.447Z,54.26
2023-03-14T14:32:38.733Z,55.01
2023-03-14T14:35:07.067Z,53.32
2023-03-14T14:37:41.287Z,54.53
2023-03-14T14:40:17.111Z,55.08
2023-03-14T14:42:43.527Z,54.49
2023-03-14T14:45:18.066Z,53.99
2023-03-14T14:48:05.038Z,54.06
2023-03-14T14:50:34.714Z,54.28
2023-03-14T14:53:20.772Z,54.99
2023-03-14T14:55:53.828Z,54.18
2023-03-14T14:58:29.719Z,54.82
2023-03-14T15:00:57.728Z,55.49
2023-03-14T15:03:28.904Z,54.29
2023-03-14T15:05:56.420Z,53.76
2023-03-14T15:08:24.754Z,55.03
2023-03-14T15:10:51.181Z,54.93
2023-03-14T15:13:17.532Z,55.16
2023-03-14T15:15:44.558Z,54.35
2023-03-14T15:18:15.150Z,54.88
2023-03-14T15:20:41.956Z,55.31
2023-03-14T15:23:17.345Z,55.44
2023-03-14T15:25:55.051Z,54.38
2023-03-14T15:28:25.253Z,55.59
2023-03-14T15:30:53.946Z,54.96
2023-03-14T15:33:21.549Z,54.57
2023-03-14T15:35:48.710Z,55.11
2023-03-14T15:38:18.461Z,55.77
2023-03-14T15:40:44.816Z,54.69
2023-03-14T15:43:11.226Z,54.92
2023-03-14T15:45:37.600Z,54.05
2023-03-14T15:48:04.662Z,54.26
2023-03-14T15:50:31.211Z,54.94
2023-03-14T15:52:57.990Z,55.75
2023-03-14T15:55:24.418Z,55.98
2023-03-14T15:57:51.039Z,56.37
2023-03-14T16:00:19.573Z,56.56
2023-03-14T16:02:46.071Z,56.07
2023-03-14T16:05:13.551Z,54.91
2023-03-14T16:07:40.913Z,54.83
2023-03-14T16:10:09.198Z,55.77
2023-03-14T16:12:35.659Z,55.42
2023-03-14T16:15:02.111Z,56.26
2023-03-14T16:17:28.567Z,56.47
2023-03-14T16:19:54.906Z,57.10
2023-03-14T16:22:21.552Z,57.01
2023-03-14T16:24:47.957Z,56.51
2023-03-14T16:27:14.399Z,56.19
2023-03-14T16:29:42.219Z,56.65
2023-03-14T16:32:08.824Z,57.54
2023-03-14T16:34:38.078Z,57.73
2023-03-14T16:37:29.631Z,56.82
2023-03-14T16:43:14.822Z,57.19
2023-03-14T16:45:50.695Z,58.36
2023-03-14T16:48:17.182Z,58.11
2023-03-14T16:50:43.836Z,57.66
2023-03-14T16:53:14.275Z,57.46
2023-03-14T16:55:43.000Z,58.15
2023-03-14T16:58:21.273Z,58.94
2023-03-14T17:00:48.535Z,58.33
2023-03-14T17:03:16.069Z,58.42
2023-03-14T17:05:48.464Z,58.58
2023-03-14T17:08:16.831Z,57.73
2023-03-14T17:10:44.436Z,58.06
2023-03-14T17:13:29.310Z,57.87
2023-03-14T17:15:57.575Z,57.51
2023-03-14T17:18:25.512Z,57.14
2023-03-14T17:20:52.901Z,56.91
2023-03-14T17:23:20.128Z,56.51
2023-03-14T17:25:47.742Z,57.73
2023-03-14T17:28:14.110Z,58.77
2023-03-14T17:30:40.524Z,59.12
2023-03-14T17:33:06.897Z,59.43
2023-03-14T17:35:33.438Z,60.03
2023-03-14T17:38:00.116Z,59.60
2023-03-14T17:40:26.600Z,59.51
2023-03-14T17:42:53.049Z,60.02
2023-03-14T17:45:19.658Z,60.46
2023-03-14T17:47:46.287Z,60.91
2023-03-14T17:50:13.449Z,61.91
2023-03-14T17:52:39.924Z,61.22
2023-03-14T17:55:07.773Z,61.47
2023-03-14T17:57:37.851Z,61.83
2023-03-14T18:00:09.026Z,62.70
2023-03-14T18:02:35.789Z,62.46
2023-03-14T18:05:02.431Z,62.48
2023-03-14T18:07:28.848Z,62.07
2023-03-14T18:09:55.238Z,62.26
2023-03-14T18:12:22.795Z,62.93
2023-03-14T18:14:49.155Z,61.52
2023-03-14T18:17:15.550Z,62.42
2023-03-14T18:19:42.370Z,61.48
2023-03-14T18:22:09.009Z,62.52
2023-03-14T18:24:35.381Z,62.42
2023-03-14T18:27:01.758Z,63.19
2023-03-14T18:29:28.110Z,62.39
2023-03-14T18:31:56.746Z,62.77
2023-03-14T18:34:23.224Z,62.91
2023-03-14T18:36:49.755Z,63.28
2023-03-14T18:39:16.289Z,63.12
2023-03-14T18:41:42.810Z,63.13
2023-03-14T18:44:09.983Z,63.09
2023-03-14T18:46:36.400Z,64.25
2023-03-14T18:49:05.464Z,64.05
2023-03-14T18:51:33.162Z,64.59
2023-03-14T18:54:09.518Z,65.14
2023-03-14T18:56:37.683Z,64.59
2023-03-14T18:59:04.039Z,64.86
2023-03-14T19:01:31.440Z,64.72
2023-03-14T19:03:59.349Z,64.08
2023-03-14T19:06:27.827Z,64.96
2023-03-14T19:08:54.312Z,64.84
2023-03-14T19:11:20.664Z,65.79
2023-03-14T19:13:47.144Z,65.25
2023-03-14T19:16:14.948Z,65.51
2023-03-14T19:18:42.102Z,65.77
2023-03-14T19:21:11.338Z,66.11
2023-03-14T19:23:39.694Z,65.50
2023-03-14T19:26:06.397Z,66.56
2023-03-14T19:28:33.126Z,67.16
2023-03-14T19:31:02.626Z,67.00
2023-03-14T19:33:30.071Z,67.39
2023-03-14T19:35:56.908Z,67.78
2023-03-14T19:38:23.284Z,67.20
2023-03-14T19:40:56.640Z,66.96
2023-03-14T19:43:22.985Z,68.09
2023-03-14T19:45:49.559Z,69.10
2023-03-14T19:48:15.915Z,68.68
2023-03-14T19:50:43.190Z,68.77
2023-03-14T19:53:10.555Z,69.10
2023-03-14T19:55:37.541Z,68.40
2023-03-14T19:58:05.248Z,69.41
2023-03-14T20:00:31.748Z,70.20
2023-03-14T20:02:58.165Z,68.91
2023-03-14T20:05:25.034Z,68.82
2023-03-14T20:07:51.666Z,69.03
2023-03-14T20:10:22.578Z,69.21
2023-03-14T20:12:50.821Z,68.31
2023-03-14T20:15:19.475Z,69.03
2023-03-14T20:17:47.396Z,68.88
2023-03-14T20:20:14.096Z,69.25
2023-03-14T20:22:41.585Z,69.79
2023-03-14T20:25:10.919Z,70.41
2023-03-14T20:27:38.225Z,71.38
2023-03-14T20:30:11.754Z,72.28
2023-03-14T20:32:41.950Z,72.52
2023-03-14T20:35:11.366Z,73.17
2023-03-14T20:37:38.567Z,73.71
2023-03-14T20:40:07.278Z,73.45
2023-03-14T20:42:34.565Z,73.10
2023-03-14T20:45:00.983Z,73.72
2023-03-14T20:47:27.786Z,74.12
2023-03-14T20:49:54.176Z,74.13
2023-03-14T20:52:20.531Z,72.49
2023-03-14T20:54:46.873Z,71.13
2023-03-14T20:57:15.246Z,71.03
2023-03-14T20:59:41.579Z,69.75
2023-03-14T21:04:57.113Z,70.33
2023-03-14T21:07:23.486Z,70.44
2023-03-14T21:09:49.803Z,70.61
2023-03-14T21:12:16.106Z,71.17
2023-03-14T21:14:42.413Z,71.13
2023-03-14T21:17:08.813Z,70.99
2023-03-14T21:19:35.127Z,71.84
2023-03-14T21:22:04.043Z,72.12
2023-03-14T21:24:31.108Z,72.54
2023-03-14T21:26:57.741Z,72.01
2023-03-14T21:29:24.806Z,71.92
2023-03-14T21:31:51.363Z,72.50
2023-03-14T21:34:20.932Z,72.55
2023-03-14T21:36:48.880Z,72.81
2023-03-14T21:39:15.875Z,72.98
2023-03-14T21:41:42.342Z,73.86
2023-03-14T21:44:08.677Z,73.82
2023-03-14T21:46:36.682Z,74.09
2023-03-14T21:49:03.864Z,73.67
2023-03-14T21:51:31.112Z,74.59
2023-03-14T21:53:57.497Z,74.59
2023-03-14T21:56:26.767Z,74.77
2023-03-14T21:58:59.020Z,74.71
2023-03-14T22:01:25.422Z,74.09
2023-03-14T22:03:51.807Z,74.44
2023-03-14T22:06:18.116Z,75.45
2023-03-14T22:08:44.446Z,74.73
2023-03-14T22:11:10.760Z,74.71
2023-03-14T22:13:37.749Z,75.12
2023-03-14T22:16:04.485Z,75.02
2023-03-14T22:18:31.312Z,74.86
2023-03-14T22:20:57.695Z,74.74
2023-03-14T22:23:24.100Z,74.53
2023-03-14T22:25:50.545Z,75.27
2023-03-14T22:28:18.711Z,75.39
2023-03-14T22:30:49.472Z,75.33
2023-03-14T22:33:16.660Z,75.14
2023-03-14T22:35:47.399Z,75.88
2023-03-14T22:38:13.731Z,76.34
2023-03-14T22:40:40.191Z,77.37
2023-03-14T22:43:06.546Z,78.42
2023-03-14T22:45:32.993Z,79.63
2023-03-14T22:47:59.364Z,79.60
2023-03-14T22:50:25.857Z,80.46
2023-03-14T22:52:52.674Z,81.22
2023-03-14T22:55:19.030Z,80.72
2023-03-14T22:57:45.619Z,82.06
2023-03-14T23:00:13.733Z,82.79
2023-03-14T23:02:40.574Z,83.02
2023-03-14T23:05:07.265Z,83.31
2023-03-14T23:07:33.596Z,83.51
2023-03-14T23:10:00.040Z,83.82
2023-03-14T23:12:26.373Z,84.27
2023-03-14T23:14:53.860Z,84.85
2023-03-14T23:17:20.188Z,85.01
2023-03-14T23:19:49.399Z,85.43
2023-03-14T23:22:15.782Z,85.60
2023-03-14T23:24:42.115Z,85.90
2023-03-14T23:27:08.480Z,85.73
2023-03-14T23:29:34.785Z,86.20
2023-03-14T23:32:01.100Z,86.21
2023-03-14T23:34:27.473Z,86.37
2023-03-14T23:36:53.949Z,86.25
2023-03-14T23:39:20.274Z,86.24
2023-03-14T23:41:46.602Z,86.30
2023-03-14T23:44:13.370Z,86.26
2023-03-14T23:46:39.777Z,86.20
2023-03-14T23:49:06.231Z,86.55
2023-03-14T23:51:32.553Z,86.45
2023-03-14T23:53:58.876Z,86.67
2023-03-14T23:56:25.211Z,86.42
2023-03-14T23:58:51.554Z,86.76
